sensor_id;sensor_type;location;lat;lon;timestamp;temperature;humidity
31975;DHT22;18500;43.618;1.474;2023-03-31T05:45:05;13.00;1.00
31975;DHT22;18500;43.618;1.474;2023-03-31T05:47:31;13.00;1.00
31975;DHT22;18500;43.618;1.474;2023-03-31T05:49:57;13.10;1.00
31975;DHT22;18500;43.618;1.474;2023-03-31T05:52:23;13.10;1.00
31975;DHT22;18500;43.618;1.474;2023-03-31T05:54:48;13.10;1.00
31975;DHT22;18500;43.618;1.474;2023-03-31T05:57:14;13.10;1.00
31975;DHT22;18500;43.618;1.474;2023-03-31T05:59:40;13.10;1.00
31975;DHT22;18500;43.618;1.474;2023-03-31T06:02:07;13.10;1.00
31975;DHT22;18500;43.618;1.474;2023-03-31T06:04:32;13.10;1.00
31975;DHT22;18500;43.618;1.474;2023-03-31T06:06:58;13.10;1.00
31975;DHT22;18500;43.618;1.474;2023-03-31T06:09:25;13.20;1.00
31975;DHT22;18500;43.618;1.474;2023-03-31T06:11:51;13.20;1.00
31975;DHT22;18500;43.618;1.474;2023-03-31T06:14:16;13.20;1.00
31975;DHT22;18500;43.618;1.474;2023-03-31T06:16:42;13.20;1.00
31975;DHT22;18500;43.618;1.474;2023-03-31T06:19:08;13.20;1.00
31975;DHT22;18500;43.618;1.474;2023-03-31T06:21:33;13.30;1.00
31975;DHT22;18500;43.618;1.474;2023-03-31T06:23:59;13.30;1.00
31975;DHT22;18500;43.618;1.474;2023-03-31T06:26:25;13.30;1.00
31975;DHT22;18500;43.618;1.474;2023-03-31T06:28:52;13.30;1.00
31975;DHT22;18500;43.618;1.474;2023-03-31T06:31:22;13.30;1.00
31975;DHT22;18500;43.618;1.474;2023-03-31T06:33:49;13.30;1.00
31975;DHT22;18500;43.618;1.474;2023-03-31T06:36:17;13.30;1.00
31975;DHT22;18500;43.618;1.474;2023-03-31T06:38:44;13.30;1.00
31975;DHT22;18500;43.618;1.474;2023-03-31T06:41:12;13.40;1.00
31975;DHT22;18500;43.618;1.474;2023-03-31T06:43:37;13.40;1.00
31975;DHT22;18500;43.618;1.474;2023-03-31T06:46:04;13.40;1.00
31975;DHT22;18500;43.618;1.474;2023-03-31T06:48:30;13.40;1.00
31975;DHT22;18500;43.618;1.474;2023-03-31T06:50:58;13.40;1.00
31975;DHT22;18500;43.618;1.474;2023-03-31T06:53:25;13.50;1.00
31975;DHT22;18500;43.618;1.474;2023-03-31T06:55:51;13.50;1.00
31975;DHT22;18500;43.618;1.474;2023-03-31T06:58:16;13.60;1.00
31975;DHT22;18500;43.618;1.474;2023-03-31T07:00:42;13.60;1.00
31975;DHT22;18500;43.618;1.474;2023-03-31T07:03:10;13.70;1.00
31975;DHT22;18500;43.618;1.474;2023-03-31T07:05:36;13.70;1.00
31975;DHT22;18500;43.618;1.474;2023-03-31T07:08:02;13.80;1.00
31975;DHT22;18500;43.618;1.474;2023-03-31T07:10:29;13.90;1.00
31975;DHT22;18500;43.618;1.474;2023-03-31T07:12:55;14.10;1.00
31975;DHT22;18500;43.618;1.474;2023-03-31T07:15:22;14.20;1.00
31975;DHT22;18500;43.618;1.474;2023-03-31T07:17:48;14.30;1.00
31975;DHT22;18500;43.618;1.474;2023-03-31T07:20:16;14.40;1.00
31975;DHT22;18500;43.618;1.474;2023-03-31T07:22:44;14.50;1.00
31975;DHT22;18500;43.618;1.474;2023-03-31T07:25:12;14.40;1.00
31975;DHT22;18500;43.618;1.474;2023-03-31T07:27:38;14.40;1.00
31975;DHT22;18500;43.618;1.474;2023-03-31T07:30:08;14.40;1.00
31975;DHT22;18500;43.618;1.474;2023-03-31T07:32:34;14.40;1.00
31975;DHT22;18500;43.618;1.474;2023-03-31T07:35:05;14.40;1.00
31975;DHT22;18500;43.618;1.474;2023-03-31T07:37:35;14.50;1.00
31975;DHT22;18500;43.618;1.474;2023-03-31T07:40:02;14.70;1.00
31975;DHT22;18500;43.618;1.474;2023-03-31T07:42:29;14.90;1.00
31975;DHT22;18500;43.618;1.474;2023-03-31T07:44:55;15.00;1.00
31975;DHT22;18500;43.618;1.474;2023-03-31T07:47:20;15.20;1.00
31975;DHT22;18500;43.618;1.474;2023-03-31T07:49:46;15.10;1.00
31975;DHT22;18500;43.618;1.474;2023-03-31T07:52:12;15.00;1.00
31975;DHT22;18500;43.618;1.474;2023-03-31T07:54:38;14.80;1.00
31975;DHT22;18500;43.618;1.474;2023-03-31T07:57:03;14.80;1.00
31975;DHT22;18500;43.618;1.474;2023-03-31T07:59:30;14.80;1.00
31975;DHT22;18500;43.618;1.474;2023-03-31T08:01:56;14.80;1.00
31975;DHT22;18500;43.618;1.474;2023-03-31T08:04:22;14.80;1.00
31975;DHT22;18500;43.618;1.474;2023-03-31T08:06:47;14.70;1.00
31975;DHT22;18500;43.618;1.474;2023-03-31T08:09:13;14.70;1.00
31975;DHT22;18500;43.618;1.474;2023-03-31T08:11:38;14.70;1.00
31975;DHT22;18500;43.618;1.474;2023-03-31T08:14:04;14.70;1.00
31975;DHT22;18500;43.618;1.474;2023-03-31T08:16:30;14.60;1.00
31975;DHT22;18500;43.618;1.474;2023-03-31T08:18:55;14.60;1.00
31975;DHT22;18500;43.618;1.474;2023-03-31T08:21:21;14.50;1.00
31975;DHT22;18500;43.618;1.474;2023-03-31T08:23:47;14.60;1.00
31975;DHT22;18500;43.618;1.474;2023-03-31T08:26:15;14.60;1.00
31975;DHT22;18500;43.618;1.474;2023-03-31T08:28:44;14.60;1.00
31975;DHT22;18500;43.618;1.474;2023-03-31T08:31:10;14.60;1.00
31975;DHT22;18500;43.618;1.474;2023-03-31T08:33:37;14.70;1.00
31975;DHT22;18500;43.618;1.474;2023-03-31T08:36:07;14.60;1.00
31975;DHT22;18500;43.618;1.474;2023-03-31T08:38:35;14.70;1.00
31975;DHT22;18500;43.618;1.474;2023-03-31T08:41:04;14.70;1.00
31975;DHT22;18500;43.618;1.474;2023-03-31T08:43:34;14.60;1.00
31975;DHT22;18500;43.618;1.474;2023-03-31T08:46:02;14.60;1.00
31975;DHT22;18500;43.618;1.474;2023-03-31T08:48:33;14.60;1.00
31975;DHT22;18500;43.618;1.474;2023-03-31T08:54:05;14.60;1.00
31975;DHT22;18500;43.618;1.474;2023-03-31T08:56:39;14.60;1.00
31975;DHT22;18500;43.618;1.474;2023-03-31T09:01:59;14.60;1.00
31975;DHT22;18500;43.618;1.474;2023-03-31T09:10:40;14.70;1.00
31975;DHT22;18500;43.618;1.474;2023-03-31T09:13:44;14.60;1.00
31975;DHT22;18500;43.618;1.474;2023-03-31T09:22:00;15.00;1.00
31975;DHT22;18500;43.618;1.474;2023-03-31T09:24:31;14.90;1.00
31975;DHT22;18500;43.618;1.474;2023-03-31T09:27:04;14.70;1.00
31975;DHT22;18500;43.618;1.474;2023-03-31T09:30:49;14.70;1.00
31975;DHT22;18500;43.618;1.474;2023-03-31T09:32:47;14.70;1.00
31975;DHT22;18500;43.618;1.474;2023-03-31T09:35:19;14.80;1.00
31975;DHT22;18500;43.618;1.474;2023-03-31T09:37:50;14.80;1.00
31975;DHT22;18500;43.618;1.474;2023-03-31T09:40:21;14.90;1.00
31975;DHT22;18500;43.618;1.474;2023-03-31T09:43:03;15.00;1.00
31975;DHT22;18500;43.618;1.474;2023-03-31T09:45:30;15.00;1.00
31975;DHT22;18500;43.618;1.474;2023-03-31T09:48:01;14.90;1.00
31975;DHT22;18500;43.618;1.474;2023-03-31T09:50:29;14.90;1.00
31975;DHT22;18500;43.618;1.474;2023-03-31T09:52:58;14.90;1.00
31975;DHT22;18500;43.618;1.474;2023-03-31T09:55:44;15.00;1.00
31975;DHT22;18500;43.618;1.474;2023-03-31T09:58:14;15.20;1.00
31975;DHT22;18500;43.618;1.474;2023-03-31T10:01:04;15.50;1.00
31975;DHT22;18500;43.618;1.474;2023-03-31T10:03:31;15.70;1.00
31975;DHT22;18500;43.618;1.474;2023-03-31T10:06:08;15.50;1.00
31975;DHT22;18500;43.618;1.474;2023-03-31T10:08:40;15.40;1.00
31975;DHT22;18500;43.618;1.474;2023-03-31T10:11:10;15.80;1.00
31975;DHT22;18500;43.618;1.474;2023-03-31T10:14:12;16.00;1.00
31975;DHT22;18500;43.618;1.474;2023-03-31T10:16:50;16.00;1.00
31975;DHT22;18500;43.618;1.474;2023-03-31T10:19:28;15.70;1.00
31975;DHT22;18500;43.618;1.474;2023-03-31T10:21:59;15.60;1.00
31975;DHT22;18500;43.618;1.474;2023-03-31T10:24:26;15.40;1.00
31975;DHT22;18500;43.618;1.474;2023-03-31T10:27:00;15.60;1.00
31975;DHT22;18500;43.618;1.474;2023-03-31T10:29:31;15.80;1.00
31975;DHT22;18500;43.618;1.474;2023-03-31T10:32:25;16.00;1.00
31975;DHT22;18500;43.618;1.474;2023-03-31T10:34:56;15.90;1.00
31975;DHT22;18500;43.618;1.474;2023-03-31T10:37:25;16.40;1.00
31975;DHT22;18500;43.618;1.474;2023-03-31T10:40:00;16.50;1.00
31975;DHT22;18500;43.618;1.474;2023-03-31T10:42:27;16.70;1.00
31975;DHT22;18500;43.618;1.474;2023-03-31T10:45:25;16.20;1.00
31975;DHT22;18500;43.618;1.474;2023-03-31T10:47:56;16.40;1.00
31975;DHT22;18500;43.618;1.474;2023-03-31T10:50:33;16.20;1.00
31975;DHT22;18500;43.618;1.474;2023-03-31T10:53:05;16.20;1.00
31975;DHT22;18500;43.618;1.474;2023-03-31T10:55:35;16.30;1.00
31975;DHT22;18500;43.618;1.474;2023-03-31T11:01:24;17.10;1.00
31975;DHT22;18500;43.618;1.474;2023-03-31T11:06:33;15.90;1.00
31975;DHT22;18500;43.618;1.474;2023-03-31T11:09:15;15.70;1.00
31975;DHT22;18500;43.618;1.474;2023-03-31T11:11:54;15.80;1.00
31975;DHT22;18500;43.618;1.474;2023-03-31T11:15:02;15.90;1.00
31975;DHT22;18500;43.618;1.474;2023-03-31T11:18:12;15.80;1.00
31975;DHT22;18500;43.618;1.474;2023-03-31T11:23:30;15.60;1.00
31975;DHT22;18500;43.618;1.474;2023-03-31T11:26:09;15.40;1.00
31975;DHT22;18500;43.618;1.474;2023-03-31T11:31:43;15.50;1.00
31975;DHT22;18500;43.618;1.474;2023-03-31T11:42:54;15.70;1.00
31975;DHT22;18500;43.618;1.474;2023-03-31T11:45:27;15.70;1.00
31975;DHT22;18500;43.618;1.474;2023-03-31T11:47:58;15.90;1.00
31975;DHT22;18500;43.618;1.474;2023-03-31T11:50:27;16.00;1.00
31975;DHT22;18500;43.618;1.474;2023-03-31T11:52:56;16.20;1.00
31975;DHT22;18500;43.618;1.474;2023-03-31T11:55:25;16.30;1.00
31975;DHT22;18500;43.618;1.474;2023-03-31T11:58:08;16.00;1.00
31975;DHT22;18500;43.618;1.474;2023-03-31T12:00:42;16.00;1.00
31975;DHT22;18500;43.618;1.474;2023-03-31T12:03:21;16.10;1.00
31975;DHT22;18500;43.618;1.474;2023-03-31T12:05:50;16.20;1.00
31975;DHT22;18500;43.618;1.474;2023-03-31T12:16:46;16.10;1.00
31975;DHT22;18500;43.618;1.474;2023-03-31T12:22:18;15.70;1.00
31975;DHT22;18500;43.618;1.474;2023-03-31T12:24:46;15.60;1.00
31975;DHT22;18500;43.618;1.474;2023-03-31T12:30:32;15.70;1.00
31975;DHT22;18500;43.618;1.474;2023-03-31T12:33:05;15.70;1.00
31975;DHT22;18500;43.618;1.474;2023-03-31T12:35:36;15.80;1.00
31975;DHT22;18500;43.618;1.474;2023-03-31T12:41:18;15.90;1.00
31975;DHT22;18500;43.618;1.474;2023-03-31T12:46:57;15.80;1.00
31975;DHT22;18500;43.618;1.474;2023-03-31T12:49:43;15.80;1.00
31975;DHT22;18500;43.618;1.474;2023-03-31T12:55:32;15.80;1.00
31975;DHT22;18500;43.618;1.474;2023-03-31T13:01:01;15.60;1.00
31975;DHT22;18500;43.618;1.474;2023-03-31T13:03:47;15.70;1.00
31975;DHT22;18500;43.618;1.474;2023-03-31T13:14:19;15.50;1.00
31975;DHT22;18500;43.618;1.474;2023-03-31T13:16:46;15.40;1.00
31975;DHT22;18500;43.618;1.474;2023-03-31T13:19:32;15.40;1.00
31975;DHT22;18500;43.618;1.474;2023-03-31T13:22:00;15.40;1.00
31975;DHT22;18500;43.618;1.474;2023-03-31T13:24:28;15.00;99.90
31975;DHT22;18500;43.618;1.474;2023-03-31T13:26:57;12.90;99.90
31975;DHT22;18500;43.618;1.474;2023-03-31T13:29:42;12.60;99.90
31975;DHT22;18500;43.618;1.474;2023-03-31T13:37:38;14.10;1.00
31975;DHT22;18500;43.618;1.474;2023-03-31T13:43:08;15.20;1.00
31975;DHT22;18500;43.618;1.474;2023-03-31T14:04:56;16.00;1.00
31975;DHT22;18500;43.618;1.474;2023-03-31T14:07:39;16.00;1.00
31975;DHT22;18500;43.618;1.474;2023-03-31T14:18:10;16.00;1.00
31975;DHT22;18500;43.618;1.474;2023-03-31T14:20:39;15.90;1.00
31975;DHT22;18500;43.618;1.474;2023-03-31T14:25:42;16.00;1.00
31975;DHT22;18500;43.618;1.474;2023-03-31T14:38:40;17.10;1.00
31975;DHT22;18500;43.618;1.474;2023-03-31T14:41:06;17.00;1.00
31975;DHT22;18500;43.618;1.474;2023-03-31T14:43:43;17.30;1.00
31975;DHT22;18500;43.618;1.474;2023-03-31T14:46:10;17.20;1.00
31975;DHT22;18500;43.618;1.474;2023-03-31T14:48:44;16.90;1.00
31975;DHT22;18500;43.618;1.474;2023-03-31T14:51:14;16.70;1.00
31975;DHT22;18500;43.618;1.474;2023-03-31T14:53:40;16.90;1.00
31975;DHT22;18500;43.618;1.474;2023-03-31T14:56:14;17.00;1.00
31975;DHT22;18500;43.618;1.474;2023-03-31T14:58:45;17.10;1.00
31975;DHT22;18500;43.618;1.474;2023-03-31T15:01:16;17.40;1.00
31975;DHT22;18500;43.618;1.474;2023-03-31T15:03:43;17.20;1.00
31975;DHT22;18500;43.618;1.474;2023-03-31T15:06:10;17.00;1.00
31975;DHT22;18500;43.618;1.474;2023-03-31T15:08:36;17.20;1.00
31975;DHT22;18500;43.618;1.474;2023-03-31T15:11:05;16.70;1.00
31975;DHT22;18500;43.618;1.474;2023-03-31T15:13:34;16.70;1.00
31975;DHT22;18500;43.618;1.474;2023-03-31T15:18:44;17.00;1.00
31975;DHT22;18500;43.618;1.474;2023-03-31T15:21:20;17.30;1.00
31975;DHT22;18500;43.618;1.474;2023-03-31T15:23:46;17.20;1.00
31975;DHT22;18500;43.618;1.474;2023-03-31T15:26:14;17.40;1.00
31975;DHT22;18500;43.618;1.474;2023-03-31T15:29:14;17.20;1.00
31975;DHT22;18500;43.618;1.474;2023-03-31T15:31:42;16.90;1.00
31975;DHT22;18500;43.618;1.474;2023-03-31T15:34:25;17.00;1.00
31975;DHT22;18500;43.618;1.474;2023-03-31T15:36:55;16.90;1.00
31975;DHT22;18500;43.618;1.474;2023-03-31T15:39:23;17.00;1.00
31975;DHT22;18500;43.618;1.474;2023-03-31T15:41:50;16.60;1.00
31975;DHT22;18500;43.618;1.474;2023-03-31T15:44:36;16.70;1.00
31975;DHT22;18500;43.618;1.474;2023-03-31T15:49:52;16.80;1.00
31975;DHT22;18500;43.618;1.474;2023-03-31T15:52:26;16.70;1.00
31975;DHT22;18500;43.618;1.474;2023-03-31T15:54:52;16.70;1.00
31975;DHT22;18500;43.618;1.474;2023-03-31T15:57:18;16.30;1.00
31975;DHT22;18500;43.618;1.474;2023-03-31T15:59:50;16.10;1.00
31975;DHT22;18500;43.618;1.474;2023-03-31T16:02:22;16.00;1.00
31975;DHT22;18500;43.618;1.474;2023-03-31T16:04:51;16.30;1.00
31975;DHT22;18500;43.618;1.474;2023-03-31T16:07:25;16.60;1.00
31975;DHT22;18500;43.618;1.474;2023-03-31T16:09:59;16.60;1.00
31975;DHT22;18500;43.618;1.474;2023-03-31T16:12:41;16.60;1.00
31975;DHT22;18500;43.618;1.474;2023-03-31T16:15:16;16.30;1.00
31975;DHT22;18500;43.618;1.474;2023-03-31T16:17:57;16.10;1.00
31975;DHT22;18500;43.618;1.474;2023-03-31T16:20:34;16.00;1.00
31975;DHT22;18500;43.618;1.474;2023-03-31T16:23:09;15.90;1.00
31975;DHT22;18500;43.618;1.474;2023-03-31T16:25:38;15.40;1.00
31975;DHT22;18500;43.618;1.474;2023-03-31T16:28:05;15.40;1.00
31975;DHT22;18500;43.618;1.474;2023-03-31T16:30:37;15.50;1.00
31975;DHT22;18500;43.618;1.474;2023-03-31T16:33:09;15.60;1.00
31975;DHT22;18500;43.618;1.474;2023-03-31T16:35:44;15.60;1.00
31975;DHT22;18500;43.618;1.474;2023-03-31T16:38:13;15.60;1.00
31975;DHT22;18500;43.618;1.474;2023-03-31T16:40:42;15.80;1.00
31975;DHT22;18500;43.618;1.474;2023-03-31T16:43:22;15.90;1.00
31975;DHT22;18500;43.618;1.474;2023-03-31T16:45:53;15.90;1.00
31975;DHT22;18500;43.618;1.474;2023-03-31T16:48:21;15.70;1.00
31975;DHT22;18500;43.618;1.474;2023-03-31T16:50:53;15.70;1.00
31975;DHT22;18500;43.618;1.474;2023-03-31T16:53:21;15.40;1.00
31975;DHT22;18500;43.618;1.474;2023-03-31T16:55:47;15.50;1.00
31975;DHT22;18500;43.618;1.474;2023-03-31T16:58:14;15.40;1.00
31975;DHT22;18500;43.618;1.474;2023-03-31T17:00:40;15.30;1.00
31975;DHT22;18500;43.618;1.474;2023-03-31T17:03:07;15.30;1.00
31975;DHT22;18500;43.618;1.474;2023-03-31T17:05:41;15.40;1.00
31975;DHT22;18500;43.618;1.474;2023-03-31T17:08:08;15.40;1.00
31975;DHT22;18500;43.618;1.474;2023-03-31T17:10:35;15.20;1.00
31975;DHT22;18500;43.618;1.474;2023-03-31T17:13:00;15.10;1.00
31975;DHT22;18500;43.618;1.474;2023-03-31T17:15:26;15.10;1.00
31975;DHT22;18500;43.618;1.474;2023-03-31T17:17:55;15.10;1.00
31975;DHT22;18500;43.618;1.474;2023-03-31T17:20:21;15.10;1.00
31975;DHT22;18500;43.618;1.474;2023-03-31T17:22:47;15.10;1.00
31975;DHT22;18500;43.618;1.474;2023-03-31T17:25:13;15.00;1.00
31975;DHT22;18500;43.618;1.474;2023-03-31T17:27:39;15.00;1.00
31975;DHT22;18500;43.618;1.474;2023-03-31T17:30:05;15.00;1.00
31975;DHT22;18500;43.618;1.474;2023-03-31T17:32:31;15.00;1.00
31975;DHT22;18500;43.618;1.474;2023-03-31T17:34:57;15.00;1.00
31975;DHT22;18500;43.618;1.474;2023-03-31T17:37:23;14.90;1.00
31975;DHT22;18500;43.618;1.474;2023-03-31T17:39:50;14.90;1.00
31975;DHT22;18500;43.618;1.474;2023-03-31T17:42:15;14.80;1.00
31975;DHT22;18500;43.618;1.474;2023-03-31T17:44:41;14.70;1.00
31975;DHT22;18500;43.618;1.474;2023-03-31T17:47:07;14.70;1.00
31975;DHT22;18500;43.618;1.474;2023-03-31T17:49:33;14.60;1.00
31975;DHT22;18500;43.618;1.474;2023-03-31T17:51:59;14.50;1.00
31975;DHT22;18500;43.618;1.474;2023-03-31T17:54:25;14.50;1.00
31975;DHT22;18500;43.618;1.474;2023-03-31T17:56:51;14.50;1.00
31975;DHT22;18500;43.618;1.474;2023-03-31T17:59:17;14.40;1.00
31975;DHT22;18500;43.618;1.474;2023-03-31T18:01:44;14.40;1.00
31975;DHT22;18500;43.618;1.474;2023-03-31T18:04:11;14.30;1.00
31975;DHT22;18500;43.618;1.474;2023-03-31T18:06:38;14.40;1.00
31975;DHT22;18500;43.618;1.474;2023-03-31T18:09:04;14.20;1.00
31975;DHT22;18500;43.618;1.474;2023-03-31T18:11:30;14.10;1.00
31975;DHT22;18500;43.618;1.474;2023-03-31T18:13:57;14.10;1.00
31975;DHT22;18500;43.618;1.474;2023-03-31T18:16:26;14.00;1.00
31975;DHT22;18500;43.618;1.474;2023-03-31T18:18:52;13.90;1.00
31975;DHT22;18500;43.618;1.474;2023-03-31T18:21:18;13.90;1.00
31975;DHT22;18500;43.618;1.474;2023-03-31T18:23:44;13.90;1.00
31975;DHT22;18500;43.618;1.474;2023-03-31T18:26:11;13.70;1.00
31975;DHT22;18500;43.618;1.474;2023-03-31T18:28:37;13.60;1.00
31975;DHT22;18500;43.618;1.474;2023-03-31T18:31:06;13.60;1.00
31975;DHT22;18500;43.618;1.474;2023-03-31T18:33:32;13.60;1.00
31975;DHT22;18500;43.618;1.474;2023-03-31T18:35:58;13.70;1.00
31975;DHT22;18500;43.618;1.474;2023-03-31T18:38:24;13.60;1.00
31975;DHT22;18500;43.618;1.474;2023-03-31T18:40:51;13.60;1.00
31975;DHT22;18500;43.618;1.474;2023-03-31T18:43:18;13.50;1.00
31975;DHT22;18500;43.618;1.474;2023-03-31T18:45:47;13.50;1.00
31975;DHT22;18500;43.618;1.474;2023-03-31T18:48:14;13.50;1.00
31975;DHT22;18500;43.618;1.474;2023-03-31T18:50:42;13.40;1.00
31975;DHT22;18500;43.618;1.474;2023-03-31T18:53:08;13.40;1.00
31975;DHT22;18500;43.618;1.474;2023-03-31T18:55:34;13.30;1.00
31975;DHT22;18500;43.618;1.474;2023-03-31T18:58:00;13.30;1.00
31975;DHT22;18500;43.618;1.474;2023-03-31T19:00:26;13.30;1.00
31975;DHT22;18500;43.618;1.474;2023-03-31T19:02:51;13.30;1.00
31975;DHT22;18500;43.618;1.474;2023-03-31T19:05:18;13.10;1.00
31975;DHT22;18500;43.618;1.474;2023-03-31T19:07:44;13.10;1.00
31975;DHT22;18500;43.618;1.474;2023-03-31T19:10:09;13.00;1.00
31975;DHT22;18500;43.618;1.474;2023-03-31T19:12:36;13.00;1.00
31975;DHT22;18500;43.618;1.474;2023-03-31T19:15:02;13.00;1.00
31975;DHT22;18500;43.618;1.474;2023-03-31T19:17:28;13.00;1.00
31975;DHT22;18500;43.618;1.474;2023-03-31T19:19:53;12.90;1.00
31975;DHT22;18500;43.618;1.474;2023-03-31T19:22:19;12.90;1.00
31975;DHT22;18500;43.618;1.474;2023-03-31T19:24:45;12.90;1.00
31975;DHT22;18500;43.618;1.474;2023-03-31T19:27:11;12.90;1.00
31975;DHT22;18500;43.618;1.474;2023-03-31T19:29:37;12.80;1.00
31975;DHT22;18500;43.618;1.474;2023-03-31T19:32:03;12.80;1.00
31975;DHT22;18500;43.618;1.474;2023-03-31T19:34:29;12.80;1.00
31975;DHT22;18500;43.618;1.474;2023-03-31T19:36:54;12.90;1.00
31975;DHT22;18500;43.618;1.474;2023-03-31T19:39:21;12.90;1.00
31975;DHT22;18500;43.618;1.474;2023-03-31T19:41:46;12.90;1.00
31975;DHT22;18500;43.618;1.474;2023-03-31T19:44:12;12.90;1.00
31975;DHT22;18500;43.618;1.474;2023-03-31T19:46:38;12.80;1.00
31975;DHT22;18500;43.618;1.474;2023-03-31T19:49:03;12.70;1.00
31975;DHT22;18500;43.618;1.474;2023-03-31T19:51:29;12.70;1.00
31975;DHT22;18500;43.618;1.474;2023-03-31T19:53:55;12.70;1.00
31975;DHT22;18500;43.618;1.474;2023-03-31T19:56:21;12.60;1.00
31975;DHT22;18500;43.618;1.474;2023-03-31T19:58:50;12.60;1.00
31975;DHT22;18500;43.618;1.474;2023-03-31T20:01:22;12.60;1.00
31975;DHT22;18500;43.618;1.474;2023-03-31T20:03:47;12.60;1.00
31975;DHT22;18500;43.618;1.474;2023-03-31T20:06:23;12.50;1.00
31975;DHT22;18500;43.618;1.474;2023-03-31T20:08:53;12.50;1.00
31975;DHT22;18500;43.618;1.474;2023-03-31T20:11:20;12.70;1.00
31975;DHT22;18500;43.618;1.474;2023-03-31T20:13:46;12.60;1.00
31975;DHT22;18500;43.618;1.474;2023-03-31T20:16:23;12.70;1.00
31975;DHT22;18500;43.618;1.474;2023-03-31T20:18:54;12.70;1.00
31975;DHT22;18500;43.618;1.474;2023-03-31T20:21:22;12.60;1.00
31975;DHT22;18500;43.618;1.474;2023-03-31T20:23:48;12.60;1.00
31975;DHT22;18500;43.618;1.474;2023-03-31T20:26:17;12.60;1.00
31975;DHT22;18500;43.618;1.474;2023-03-31T20:28:43;12.50;1.00
31975;DHT22;18500;43.618;1.474;2023-03-31T20:31:21;12.50;1.00
31975;DHT22;18500;43.618;1.474;2023-03-31T20:33:47;12.50;1.00
31975;DHT22;18500;43.618;1.474;2023-03-31T20:36:20;12.40;1.00
31975;DHT22;18500;43.618;1.474;2023-03-31T20:38:48;12.40;1.00
31975;DHT22;18500;43.618;1.474;2023-03-31T20:41:22;12.30;1.00
31975;DHT22;18500;43.618;1.474;2023-03-31T20:43:49;12.40;1.00
31975;DHT22;18500;43.618;1.474;2023-03-31T20:46:15;12.30;1.00
31975;DHT22;18500;43.618;1.474;2023-03-31T20:48:43;12.40;1.00
31975;DHT22;18500;43.618;1.474;2023-03-31T20:51:12;12.30;1.00
31975;DHT22;18500;43.618;1.474;2023-03-31T20:53:41;12.30;1.00
31975;DHT22;18500;43.618;1.474;2023-03-31T20:56:16;12.30;1.00
31975;DHT22;18500;43.618;1.474;2023-03-31T20:58:43;12.30;1.00
31975;DHT22;18500;43.618;1.474;2023-03-31T21:01:09;12.20;1.00
31975;DHT22;18500;43.618;1.474;2023-03-31T21:03:35;12.20;1.00
31975;DHT22;18500;43.618;1.474;2023-03-31T21:06:04;12.10;1.00
31975;DHT22;18500;43.618;1.474;2023-03-31T21:08:30;12.20;1.00
31975;DHT22;18500;43.618;1.474;2023-03-31T21:10:56;12.10;1.00
31975;DHT22;18500;43.618;1.474;2023-03-31T21:13:27;12.10;1.00
31975;DHT22;18500;43.618;1.474;2023-03-31T21:15:53;12.10;1.00
31975;DHT22;18500;43.618;1.474;2023-03-31T21:18:21;12.20;1.00
31975;DHT22;18500;43.618;1.474;2023-03-31T21:20:56;12.20;1.00
31975;DHT22;18500;43.618;1.474;2023-03-31T21:23:23;12.20;1.00
31975;DHT22;18500;43.618;1.474;2023-03-31T21:25:52;12.10;1.00
31975;DHT22;18500;43.618;1.474;2023-03-31T21:28:20;12.10;1.00
31975;DHT22;18500;43.618;1.474;2023-03-31T21:30:50;12.00;1.00
31975;DHT22;18500;43.618;1.474;2023-03-31T21:33:17;12.00;1.00
31975;DHT22;18500;43.618;1.474;2023-03-31T21:35:43;11.90;1.00
31975;DHT22;18500;43.618;1.474;2023-03-31T21:38:08;11.80;1.00
31975;DHT22;18500;43.618;1.474;2023-03-31T21:40:34;12.00;1.00
31975;DHT22;18500;43.618;1.474;2023-03-31T21:43:00;12.00;1.00
31975;DHT22;18500;43.618;1.474;2023-03-31T21:45:26;11.90;1.00
31975;DHT22;18500;43.618;1.474;2023-03-31T21:47:51;11.90;1.00
31975;DHT22;18500;43.618;1.474;2023-03-31T21:50:17;11.90;1.00
31975;DHT22;18500;43.618;1.474;2023-03-31T21:52:42;11.90;1.00
31975;DHT22;18500;43.618;1.474;2023-03-31T21:55:08;11.90;1.00
31975;DHT22;18500;43.618;1.474;2023-03-31T21:57:34;11.80;1.00
31975;DHT22;18500;43.618;1.474;2023-03-31T22:00:00;11.70;1.00
31975;DHT22;18500;43.618;1.474;2023-03-31T22:02:25;11.70;1.00
31975;DHT22;18500;43.618;1.474;2023-03-31T22:04:51;11.70;1.00
31975;DHT22;18500;43.618;1.474;2023-03-31T22:07:17;11.80;1.00
31975;DHT22;18500;43.618;1.474;2023-03-31T22:09:42;11.80;1.00
31975;DHT22;18500;43.618;1.474;2023-03-31T22:12:08;11.90;1.00
31975;DHT22;18500;43.618;1.474;2023-03-31T22:14:35;11.90;1.00
31975;DHT22;18500;43.618;1.474;2023-03-31T22:17:02;11.90;1.00
31975;DHT22;18500;43.618;1.474;2023-03-31T22:19:27;11.90;1.00
31975;DHT22;18500;43.618;1.474;2023-03-31T22:21:53;11.90;1.00
31975;DHT22;18500;43.618;1.474;2023-03-31T22:24:19;11.90;1.00
31975;DHT22;18500;43.618;1.474;2023-03-31T22:26:45;12.00;1.00
31975;DHT22;18500;43.618;1.474;2023-03-31T22:29:14;12.00;1.00
31975;DHT22;18500;43.618;1.474;2023-03-31T22:31:40;11.90;1.00
31975;DHT22;18500;43.618;1.474;2023-03-31T22:34:06;12.00;1.00
31975;DHT22;18500;43.618;1.474;2023-03-31T22:36:32;12.00;1.00
31975;DHT22;18500;43.618;1.474;2023-03-31T22:38:58;12.00;1.00
31975;DHT22;18500;43.618;1.474;2023-03-31T22:41:24;12.00;1.00
31975;DHT22;18500;43.618;1.474;2023-03-31T22:43:50;11.90;1.00
31975;DHT22;18500;43.618;1.474;2023-03-31T22:46:16;11.40;1.00
31975;DHT22;18500;43.618;1.474;2023-03-31T22:48:42;11.40;1.00
31975;DHT22;18500;43.618;1.474;2023-03-31T22:51:08;11.60;1.00
31975;DHT22;18500;43.618;1.474;2023-03-31T22:53:36;11.60;1.00
31975;DHT22;18500;43.618;1.474;2023-03-31T22:56:04;11.70;1.00
31975;DHT22;18500;43.618;1.474;2023-03-31T22:58:30;11.90;1.00
31975;DHT22;18500;43.618;1.474;2023-03-31T23:00:57;11.90;1.00
31975;DHT22;18500;43.618;1.474;2023-03-31T23:03:23;11.80;1.00
31975;DHT22;18500;43.618;1.474;2023-03-31T23:05:48;11.70;1.00
31975;DHT22;18500;43.618;1.474;2023-03-31T23:08:14;11.70;1.00
31975;DHT22;18500;43.618;1.474;2023-03-31T23:10:40;11.70;1.00
31975;DHT22;18500;43.618;1.474;2023-03-31T23:13:05;11.70;1.00
31975;DHT22;18500;43.618;1.474;2023-03-31T23:15:33;11.60;1.00
31975;DHT22;18500;43.618;1.474;2023-03-31T23:17:59;11.60;1.00
31975;DHT22;18500;43.618;1.474;2023-03-31T23:20:25;11.50;1.00
31975;DHT22;18500;43.618;1.474;2023-03-31T23:22:51;11.40;1.00
31975;DHT22;18500;43.618;1.474;2023-03-31T23:25:18;11.50;1.00
31975;DHT22;18500;43.618;1.474;2023-03-31T23:27:44;11.40;1.00
31975;DHT22;18500;43.618;1.474;2023-03-31T23:30:10;11.30;1.00
31975;DHT22;18500;43.618;1.474;2023-03-31T23:32:36;11.30;1.00
31975;DHT22;18500;43.618;1.474;2023-03-31T23:35:01;11.30;1.00
31975;DHT22;18500;43.618;1.474;2023-03-31T23:37:27;11.30;1.00
31975;DHT22;18500;43.618;1.474;2023-03-31T23:39:53;11.30;1.00
31975;DHT22;18500;43.618;1.474;2023-03-31T23:42:18;11.20;1.00
31975;DHT22;18500;43.618;1.474;2023-03-31T23:44:45;11.30;1.00
31975;DHT22;18500;43.618;1.474;2023-03-31T23:47:11;11.20;1.00
31975;DHT22;18500;43.618;1.474;2023-03-31T23:49:37;11.20;1.00